Time;durP1;ratioP1;P1;durP2;ratioP2;P2;SDS_P1;SDS_P2;PMS_P1;PMS_P2;Temp;Humidity;BMP_temperature;BMP_pressure;BME280_temperature;BME280_humidity;BME280_pressure;Samples;Min_cycle;Max_cycle;Signal;HPM_P1;HPM_P2
2022/01/11 00:00:57;;;;;;;0.10;0.10;;;8.40;99.90;;;;;;5014908;28;20033;-78
2022/01/11 00:03:23;;;;;;;0.15;0.15;;;8.40;99.90;;;;;;5014583;28;20501;-77
2022/01/11 00:06:00;;;;;;;1.25;0.90;;;8.40;99.90;;;;;;5014539;28;20125;-76
2022/01/11 00:08:30;;;;;;;0.25;0.25;;;8.40;99.90;;;;;;5013361;28;20374;-76
2022/01/11 00:11:03;;;;;;;1.35;0.93;;;8.40;99.90;;;;;;5014450;28;20026;-76
2022/01/11 00:13:29;;;;;;;;;;;8.40;99.90;;;;;;5013492;28;20041;-76
2022/01/11 00:15:54;;;;;;;2.55;1.45;;;8.40;99.90;;;;;;5013906;28;20007;-78
2022/01/11 00:18:20;;;;;;;10.00;0.40;;;8.40;99.90;;;;;;5014119;28;20037;-78
2022/01/11 00:20:46;;;;;;;0.10;0.10;;;8.40;99.90;;;;;;5014249;28;20025;-78
2022/01/11 00:25:43;;;;;;;0.00;0.00;;;8.40;99.90;;;;;;5009223;28;20037;-76
2022/01/11 00:28:10;;;;;;;0.50;0.47;;;8.40;99.90;;;;;;4994516;28;20121;-78
2022/01/11 00:30:39;;;;;;;0.45;0.38;;;8.40;99.90;;;;;;4994166;28;20121;-78
2022/01/11 00:33:09;;;;;;;0.30;0.30;;;8.40;99.90;;;;;;4994495;28;20026;-78
2022/01/11 00:35:48;;;;;;;1.05;0.77;;;8.40;99.90;;;;;;4994610;28;20030;-78
2022/01/11 00:38:16;;;;;;;0.25;0.10;;;8.40;99.90;;;;;;4994563;28;20026;-78
2022/01/11 00:40:50;;;;;;;0.10;0.10;;;8.30;99.90;;;;;;4994349;28;20033;-78
2022/01/11 00:43:17;;;;;;;0.08;0.08;;;8.40;99.90;;;;;;4994632;28;20482;-78
2022/01/11 00:45:43;;;;;;;0.38;0.30;;;8.40;99.90;;;;;;4994298;28;20077;-78
2022/01/11 00:48:10;;;;;;;0.10;0.10;;;8.30;99.90;;;;;;4996988;28;20030;-76
2022/01/11 00:50:37;;;;;;;6.15;1.35;;;8.30;99.90;;;;;;5013452;28;20560;-76
2022/01/11 00:53:06;;;;;;;0.00;0.00;;;8.40;99.90;;;;;;5013409;28;20026;-78
2022/01/11 00:55:32;;;;;;;1.00;0.77;;;8.30;99.90;;;;;;5013853;28;20559;-78
2022/01/11 00:57:59;;;;;;;0.25;0.25;;;8.40;99.90;;;;;;5013772;28;20447;-78
2022/01/11 01:00:25;;;;;;;1.20;0.70;;;8.30;99.90;;;;;;5013595;28;20409;-76
2022/01/11 01:02:51;;;;;;;2.38;1.25;;;8.30;99.90;;;;;;5013496;28;20026;-76
2022/01/11 01:05:17;;;;;;;0.22;0.22;;;8.30;99.90;;;;;;5012314;28;20033;-78
2022/01/11 01:07:46;;;;;;;0.73;0.73;;;8.30;99.90;;;;;;5013466;28;20065;-78
2022/01/11 01:10:21;;;;;;;1.13;0.63;;;8.30;99.90;;;;;;5013190;28;20022;-78
2022/01/11 01:12:46;;;;;;;1.45;0.88;;;8.20;99.90;;;;;;5012229;28;20152;-76
2022/01/11 01:15:13;;;;;;;1.23;1.15;;;8.20;99.90;;;;;;5012304;28;20104;-76
2022/01/11 01:17:38;;;;;;;0.80;0.55;;;8.10;99.90;;;;;;5013034;28;20511;-76
2022/01/11 01:20:05;;;;;;;0.70;0.52;;;8.10;99.90;;;;;;5013326;28;20030;-78
2022/01/11 01:22:31;;;;;;;0.10;0.10;;;8.10;99.90;;;;;;5012967;28;20030;-78
2022/01/11 01:24:57;;;;;;;1.58;1.10;;;8.00;99.90;;;;;;5013365;28;20038;-78
2022/01/11 01:27:23;;;;;;;0.47;0.47;;;7.90;99.90;;;;;;5012986;28;20029;-76
2022/01/11 01:29:49;;;;;;;0.00;0.00;;;7.90;99.90;;;;;;5013019;28;20041;-76
2022/01/11 01:32:15;;;;;;;0.00;0.00;;;7.80;99.90;;;;;;5012592;28;20125;-76
2022/01/11 01:34:40;;;;;;;0.35;0.35;;;7.80;99.90;;;;;;5013211;28;20026;-77
2022/01/11 01:37:07;;;;;;;0.52;0.52;;;7.70;99.90;;;;;;5012939;28;20411;-78
2022/01/11 01:39:34;;;;;;;0.10;0.10;;;7.70;99.90;;;;;;5013120;28;20489;-78
2022/01/11 01:42:05;;;;;;;0.82;0.82;;;7.70;99.90;;;;;;5012726;28;20030;-77
2022/01/11 01:44:33;;;;;;;0.30;0.30;;;7.70;99.90;;;;;;5012870;28;20018;-78
2022/01/11 01:46:59;;;;;;;0.00;0.00;;;7.70;99.90;;;;;;5012951;28;20485;-76
2022/01/11 01:49:25;;;;;;;0.13;0.13;;;7.70;99.90;;;;;;5012714;28;20061;-78
2022/01/11 01:51:51;;;;;;;0.00;0.00;;;7.70;99.90;;;;;;5012618;28;20030;-78
2022/01/11 01:54:18;;;;;;;1.15;0.80;;;7.70;99.90;;;;;;5012599;28;20481;-76
2022/01/11 01:56:45;;;;;;;3.50;3.00;;;7.60;99.90;;;;;;5012933;28;20026;-78
2022/01/11 01:59:11;;;;;;;0.20;0.20;;;7.70;99.90;;;;;;5012945;28;20029;-79
2022/01/11 02:01:44;;;;;;;0.80;0.75;;;7.60;99.90;;;;;;5012753;28;20029;-78
2022/01/11 02:04:10;;;;;;;0.32;0.32;;;7.60;99.90;;;;;;5012682;28;20100;-76
2022/01/11 02:06:36;;;;;;;0.25;0.25;;;7.60;99.90;;;;;;5012569;28;20030;-76
2022/01/11 02:09:03;;;;;;;0.20;0.20;;;7.50;99.90;;;;;;5012815;28;20022;-78
2022/01/11 02:11:30;;;;;;;0.28;0.28;;;7.50;99.90;;;;;;5012649;28;20030;-78
2022/01/11 02:13:56;;;;;;;0.10;0.10;;;7.50;99.90;;;;;;5012059;28;20023;-78
2022/01/11 02:16:22;;;;;;;0.10;0.10;;;7.40;99.90;;;;;;5011727;28;20034;-78
2022/01/11 02:18:50;;;;;;;0.30;0.30;;;7.40;99.90;;;;;;5012512;28;20416;-76
2022/01/11 02:21:16;;;;;;;1.23;0.95;;;7.30;99.90;;;;;;5012490;28;20500;-78
2022/01/11 02:23:41;;;;;;;0.38;0.38;;;7.20;99.90;;;;;;5012573;28;20030;-76
2022/01/11 02:26:07;;;;;;;0.43;0.43;;;7.20;99.90;;;;;;5012203;28;20054;-78
2022/01/11 02:28:33;;;;;;;0.38;0.38;;;7.10;99.90;;;;;;5013004;28;20026;-78
2022/01/11 02:31:01;;;;;;;0.38;0.35;;;7.00;99.90;;;;;;5012498;28;20053;-76
2022/01/11 02:33:32;;;;;;;1.20;1.00;;;7.00;99.90;;;;;;5012535;28;20014;-76
2022/01/11 02:36:00;;;;;;;0.20;0.20;;;6.90;99.90;;;;;;5012294;28;20072;-79
2022/01/11 02:38:26;;;;;;;0.00;0.00;;;6.80;99.90;;;;;;5012325;28;20022;-78
2022/01/11 02:40:52;;;;;;;0.10;0.10;;;6.80;99.90;;;;;;5012478;28;20520;-77
2022/01/11 02:43:18;;;;;;;0.25;0.25;;;6.70;99.90;;;;;;5012672;28;20460;-78
2022/01/11 02:45:44;;;;;;;0.88;0.30;;;6.70;99.90;;;;;;5012478;28;20041;-76
2022/01/11 02:48:10;;;;;;;0.77;0.77;;;6.70;99.90;;;;;;5012250;28;20029;-78
2022/01/11 02:50:36;;;;;;;1.33;0.73;;;6.60;99.90;;;;;;5011974;28;20489;-78
2022/01/11 02:53:02;;;;;;;0.00;0.00;;;6.60;99.90;;;;;;5010639;28;20474;-78
2022/01/11 02:55:27;;;;;;;1.23;0.98;;;6.50;99.90;;;;;;5015382;28;20030;-78
2022/01/11 02:57:55;;;;;;;4.28;1.38;;;6.50;99.90;;;;;;5015969;28;20397;-76
2022/01/11 03:00:23;;;;;;;0.40;0.40;;;6.40;99.90;;;;;;5015879;28;20588;-76
2022/01/11 03:02:49;;;;;;;1.75;1.00;;;6.40;99.90;;;;;;5014607;28;20032;-79
2022/01/11 03:05:15;;;;;;;3.80;1.75;;;6.40;99.90;;;;;;4994828;28;20125;-78
2022/01/11 03:07:42;;;;;;;0.00;0.00;;;6.40;99.90;;;;;;4996082;28;20497;-78
2022/01/11 03:10:32;;;;;;;1.08;0.35;;;6.30;99.90;;;;;;4995781;28;20462;-76
2022/01/11 03:13:03;;;;;;;0.40;0.40;;;6.30;99.90;;;;;;4995458;28;20077;-76
2022/01/11 03:15:29;;;;;;;0.22;0.22;;;6.30;99.90;;;;;;4994728;28;20030;-76
2022/01/11 03:17:55;;;;;;;3.85;0.40;;;6.30;99.90;;;;;;4995818;28;20101;-77
2022/01/11 03:20:20;;;;;;;1.90;1.75;;;6.30;99.90;;;;;;4995931;28;20523;-78
2022/01/11 03:22:46;;;;;;;0.10;0.10;;;6.30;99.90;;;;;;4994644;28;20101;-77
2022/01/11 03:25:12;;;;;;;0.15;0.15;;;6.20;99.90;;;;;;5027375;28;20034;-76
2022/01/11 03:27:41;;;;;;;0.45;0.45;;;6.20;99.90;;;;;;5011632;28;20496;-78
2022/01/11 03:30:07;;;;;;;0.10;0.10;;;6.10;99.90;;;;;;5013862;28;20136;-78
2022/01/11 03:32:33;;;;;;;0.50;0.50;;;6.10;99.90;;;;;;5015489;28;20022;-79
2022/01/11 03:34:59;;;;;;;3.78;1.23;;;6.10;99.90;;;;;;5015275;28;20025;-78
2022/01/11 03:37:24;;;;;;;1.58;1.02;;;6.00;99.90;;;;;;5015114;28;20041;-78
2022/01/11 03:39:50;;;;;;;2.13;0.70;;;6.00;99.90;;;;;;5014999;28;20036;-78
2022/01/11 03:42:16;;;;;;;14.15;1.25;;;6.00;99.90;;;;;;5015027;28;20511;-78
2022/01/11 03:44:42;;;;;;;0.28;0.25;;;6.10;99.90;;;;;;5015326;28;20512;-78
2022/01/11 03:47:08;;;;;;;0.65;0.65;;;6.20;99.90;;;;;;5015051;28;20029;-78
2022/01/11 03:49:34;;;;;;;1.10;0.30;;;6.10;99.90;;;;;;5014899;28;20366;-76
2022/01/11 03:52:00;;;;;;;0.50;0.40;;;6.10;99.90;;;;;;5014557;28;20063;-76
2022/01/11 03:54:29;;;;;;;0.60;0.55;;;6.10;99.90;;;;;;5014824;28;20026;-79
2022/01/11 03:56:56;;;;;;;0.55;0.55;;;6.10;99.90;;;;;;5014760;28;20037;-78
2022/01/11 03:59:22;;;;;;;0.10;0.10;;;6.00;99.90;;;;;;5015020;28;20539;-79
2022/01/11 04:01:48;;;;;;;0.03;0.03;;;6.00;99.90;;;;;;5014592;28;20548;-76
2022/01/11 04:04:15;;;;;;;0.38;0.38;;;6.00;99.90;;;;;;5014432;28;20105;-78
2022/01/11 04:06:40;;;;;;;0.00;0.00;;;5.90;99.90;;;;;;5013679;28;20030;-78
2022/01/11 04:09:07;;;;;;;0.13;0.13;;;5.90;99.90;;;;;;5014672;28;20607;-78
2022/01/11 04:11:33;;;;;;;1.35;0.57;;;5.90;99.90;;;;;;5012793;28;20068;-79
2022/01/11 04:13:59;;;;;;;0.20;0.20;;;5.80;99.90;;;;;;5014630;28;20025;-79
2022/01/11 04:16:25;;;;;;;0.38;0.38;;;5.80;99.90;;;;;;5013154;28;20555;-76
2022/01/11 04:18:51;;;;;;;0.10;0.10;;;5.70;99.90;;;;;;5013161;28;20117;-79
2022/01/11 04:21:16;;;;;;;0.10;0.10;;;5.70;99.90;;;;;;5014087;28;20056;-79
2022/01/11 04:23:42;;;;;;;2.35;0.55;;;5.70;99.90;;;;;;5014271;28;20032;-79
2022/01/11 04:26:08;;;;;;;0.43;0.40;;;5.70;99.90;;;;;;5014057;28;20058;-79
2022/01/11 04:28:34;;;;;;;0.13;0.13;;;5.60;99.90;;;;;;5014717;28;20034;-76
2022/01/11 04:31:00;;;;;;;0.38;0.38;;;5.60;99.90;;;;;;5012841;28;20133;-76
2022/01/11 04:33:27;;;;;;;0.00;0.00;;;5.60;99.90;;;;;;5014276;28;20109;-79
2022/01/11 04:35:54;;;;;;;8.77;0.50;;;5.50;99.90;;;;;;5012648;28;20022;-78
2022/01/11 04:38:22;;;;;;;0.10;0.10;;;5.50;99.90;;;;;;5014144;28;20033;-79
2022/01/11 04:40:48;;;;;;;0.10;0.10;;;5.50;99.90;;;;;;5013913;28;20024;-76
2022/01/11 04:43:14;;;;;;;1.17;0.40;;;5.40;99.90;;;;;;5014072;28;20026;-76
2022/01/11 04:45:39;;;;;;;0.00;0.00;;;5.40;99.90;;;;;;5012666;28;20033;-79
2022/01/11 04:48:05;;;;;;;0.63;0.60;;;5.40;99.90;;;;;;5013670;28;20501;-79
2022/01/11 04:50:31;;;;;;;2.22;1.75;;;5.40;99.90;;;;;;5013594;28;20518;-79
2022/01/11 04:52:57;;;;;;;0.52;0.45;;;5.40;99.90;;;;;;5013434;28;20397;-79
2022/01/11 04:55:23;;;;;;;1.08;0.55;;;5.50;99.90;;;;;;5012303;28;20026;-76
2022/01/11 04:57:50;;;;;;;0.20;0.20;;;5.50;99.90;;;;;;5013875;28;20110;-79
2022/01/11 05:00:18;;;;;;;0.35;0.35;;;5.50;99.90;;;;;;5013769;28;20060;-79
2022/01/11 05:02:44;;;;;;;1.45;1.38;;;5.50;99.90;;;;;;5013545;28;20032;-77
2022/01/11 05:05:10;;;;;;;0.00;0.00;;;5.60;99.90;;;;;;5013422;28;20033;-79
2022/01/11 05:07:36;;;;;;;0.10;0.10;;;5.50;99.90;;;;;;5013413;28;20485;-76
2022/01/11 05:10:04;;;;;;;0.65;0.65;;;5.50;99.90;;;;;;5013233;28;20075;-76
2022/01/11 05:12:30;;;;;;;0.52;0.52;;;5.50;99.90;;;;;;5013624;28;20022;-79
2022/01/11 05:14:55;;;;;;;0.00;0.00;;;5.50;99.90;;;;;;5013477;28;20037;-79
2022/01/11 05:17:21;;;;;;;0.63;0.38;;;5.50;99.90;;;;;;5011613;28;20104;-76
2022/01/11 05:19:47;;;;;;;0.00;0.00;;;5.50;99.90;;;;;;5013439;28;20014;-76
2022/01/11 05:22:13;;;;;;;1.17;0.65;;;5.50;99.90;;;;;;5012845;28;20450;-76
2022/01/11 05:24:38;;;;;;;1.23;1.15;;;5.50;99.90;;;;;;5012102;28;20451;-76
2022/01/11 05:27:05;;;;;;;0.40;0.40;;;5.50;99.90;;;;;;5013299;28;20038;-79
2022/01/11 05:29:31;;;;;;;0.65;0.63;;;5.50;99.90;;;;;;5013128;28;20034;-79
2022/01/11 05:31:58;;;;;;;0.10;0.10;;;5.50;99.90;;;;;;5013221;28;20493;-79
2022/01/11 05:34:25;;;;;;;0.10;0.10;;;5.50;99.90;;;;;;5013160;28;20501;-79
2022/01/11 05:36:51;;;;;;;0.00;0.00;;;5.50;99.90;;;;;;5012750;28;20396;-78
2022/01/11 05:39:17;;;;;;;0.20;0.20;;;5.50;99.90;;;;;;5013210;28;20450;-79
2022/01/11 05:41:42;;;;;;;0.30;0.30;;;5.50;99.90;;;;;;5013105;28;20061;-79
2022/01/11 05:44:08;;;;;;;0.45;0.45;;;5.50;99.90;;;;;;5013011;28;20485;-77
2022/01/11 05:46:34;;;;;;;0.32;0.32;;;5.40;99.90;;;;;;5013030;28;20033;-76
2022/01/11 05:49:00;;;;;;;0.50;0.50;;;5.40;99.90;;;;;;5012900;28;20037;-76
2022/01/11 05:51:27;;;;;;;0.00;0.00;;;5.30;99.90;;;;;;5012365;28;20018;-79
2022/01/11 05:53:53;;;;;;;0.10;0.10;;;5.30;99.90;;;;;;5012770;28;20093;-79
2022/01/11 05:56:19;;;;;;;0.38;0.38;;;5.30;99.90;;;;;;5012788;28;20080;-79
2022/01/11 05:58:46;;;;;;;0.05;0.05;;;5.30;99.90;;;;;;5010702;28;20026;-78
2022/01/11 06:01:12;;;;;;;0.35;0.35;;;5.20;99.90;;;;;;5010607;28;20121;-76
2022/01/11 06:03:38;;;;;;;0.20;0.20;;;5.20;99.90;;;;;;5011462;28;20492;-76
2022/01/11 06:06:04;;;;;;;0.08;0.08;;;5.20;99.90;;;;;;5013147;28;20061;-79
2022/01/11 06:08:30;;;;;;;0.20;0.20;;;5.10;99.90;;;;;;5018016;28;20025;-79
2022/01/11 06:10:57;;;;;;;0.00;0.00;;;5.10;99.90;;;;;;5011009;28;20021;-79
2022/01/11 06:13:23;;;;;;;0.17;0.17;;;5.00;99.90;;;;;;5013823;28;20141;-76
2022/01/11 06:15:50;;;;;;;4.28;1.15;;;5.00;99.90;;;;;;5012372;28;20042;-76
2022/01/11 06:18:16;;;;;;;0.22;0.13;;;5.00;99.90;;;;;;5010455;28;20038;-79
2022/01/11 06:20:42;;;;;;;1.88;0.73;;;5.00;99.90;;;;;;5010890;28;20026;-76
2022/01/11 06:23:08;;;;;;;0.30;0.30;;;5.00;99.90;;;;;;5010294;28;20058;-76
2022/01/11 06:25:34;;;;;;;0.88;0.88;;;5.00;99.90;;;;;;5009543;28;20034;-76
2022/01/11 06:27:59;;;;;;;0.10;0.10;;;5.00;99.90;;;;;;5011285;28;20026;-77
2022/01/11 06:30:25;;;;;;;0.65;0.63;;;5.00;99.90;;;;;;5015469;28;20125;-79
2022/01/11 06:32:51;;;;;;;0.00;0.00;;;5.00;99.90;;;;;;5011950;28;20034;-78
2022/01/11 06:35:19;;;;;;;3.83;0.75;;;4.90;99.90;;;;;;5005523;28;20056;-78
2022/01/11 06:37:45;;;;;;;0.63;0.63;;;4.90;99.90;;;;;;5014613;28;20038;-78
2022/01/11 06:40:13;;;;;;;0.95;0.43;;;4.90;99.90;;;;;;5015214;28;20057;-76
2022/01/11 06:42:38;;;;;;;0.10;0.10;;;4.90;99.90;;;;;;5012832;28;20029;-76
2022/01/11 06:45:06;;;;;;;0.65;0.55;;;4.90;99.90;;;;;;5013205;28;20025;-78
2022/01/11 06:47:32;;;;;;;0.55;0.55;;;4.80;99.90;;;;;;5019467;28;20087;-76
2022/01/11 06:49:57;;;;;;;1.45;0.80;;;4.80;99.90;;;;;;5027722;28;20489;-79
2022/01/11 06:52:23;;;;;;;0.00;0.00;;;4.70;99.90;;;;;;5016938;28;20405;-75
2022/01/11 06:54:49;;;;;;;0.00;0.00;;;4.70;99.90;;;;;;5003309;28;20481;-78
2022/01/11 06:57:14;;;;;;;0.15;0.15;;;4.70;99.90;;;;;;5020743;28;20037;-77
2022/01/11 06:59:40;;;;;;;0.08;0.08;;;4.70;99.90;;;;;;5016157;28;20048;-75
2022/01/11 07:02:07;;;;;;;0.00;0.00;;;4.60;99.90;;;;;;5014574;28;20033;-75
2022/01/11 07:04:37;;;;;;;0.00;0.00;;;4.60;99.90;;;;;;5019111;28;20025;-75
2022/01/11 07:07:05;;;;;;;0.98;0.75;;;4.60;99.90;;;;;;5020487;28;20022;-79
2022/01/11 07:09:31;;;;;;;0.43;0.43;;;4.50;99.90;;;;;;5024193;28;20022;-79
2022/01/11 07:11:57;;;;;;;1.30;1.20;;;4.60;99.90;;;;;;5011932;28;20037;-75
2022/01/11 07:14:22;;;;;;;0.30;0.30;;;4.50;99.90;;;;;;5012837;28;20030;-78
2022/01/11 07:16:48;;;;;;;4.78;1.90;;;4.60;99.90;;;;;;5018022;28;20040;-75
2022/01/11 07:19:20;;;;;;;0.52;0.52;;;4.50;99.90;;;;;;5010624;28;20770;-74
2022/01/11 07:21:47;;;;;;;0.20;0.20;;;4.50;99.90;;;;;;5014638;28;20397;-78
2022/01/11 07:24:14;;;;;;;0.00;0.00;;;4.50;99.90;;;;;;5012966;28;20068;-78
2022/01/11 07:26:40;;;;;;;0.28;0.28;;;4.50;99.90;;;;;;5012976;28;20056;-78
2022/01/11 07:29:07;;;;;;;0.93;0.45;;;4.50;99.90;;;;;;5012811;28;20096;-78
2022/01/11 07:31:34;;;;;;;0.00;0.00;;;4.50;99.90;;;;;;5015930;28;20028;-78
2022/01/11 07:33:59;;;;;;;0.57;0.43;;;4.40;99.90;;;;;;5027660;28;20027;-75
2022/01/11 07:36:25;;;;;;;0.20;0.20;;;4.50;99.90;;;;;;5017914;28;20104;-78
2022/01/11 07:38:51;;;;;;;0.00;0.00;;;4.50;99.90;;;;;;5014362;28;20103;-78
2022/01/11 07:41:18;;;;;;;0.30;0.30;;;4.50;99.90;;;;;;5010546;28;20440;-78
2022/01/11 07:43:44;;;;;;;0.00;0.00;;;4.50;99.90;;;;;;5010173;28;20401;-75
2022/01/11 07:46:10;;;;;;;0.30;0.30;;;4.50;99.90;;;;;;5012853;28;20034;-75
2022/01/11 07:48:36;;;;;;;0.10;0.10;;;4.50;99.90;;;;;;5016635;28;20469;-78
2022/01/11 07:51:02;;;;;;;0.63;0.25;;;4.50;99.90;;;;;;5012927;28;20126;-79
2022/01/11 07:53:28;;;;;;;1.75;0.63;;;4.50;99.90;;;;;;5020518;28;20021;-78
2022/01/11 07:55:53;;;;;;;0.00;0.00;;;4.50;99.90;;;;;;5021687;28;20026;-75
2022/01/11 07:58:19;;;;;;;3.80;1.80;;;4.40;99.90;;;;;;5017378;28;20022;-75
2022/01/11 08:00:45;;;;;;;0.22;0.22;;;4.50;99.90;;;;;;5030697;28;20109;-75
2022/01/11 08:03:10;;;;;;;2.30;1.95;;;4.50;99.90;;;;;;5018248;28;20018;-78
2022/01/11 08:05:36;;;;;;;0.10;0.10;;;4.50;99.90;;;;;;5008886;28;20470;-75
2022/01/11 08:08:02;;;;;;;0.00;0.00;;;4.60;99.90;;;;;;5015976;28;20412;-78
2022/01/11 08:10:28;;;;;;;2.83;0.75;;;4.60;99.90;;;;;;5016120;28;20037;-78
2022/01/11 08:12:54;;;;;;;0.85;0.82;;;4.60;99.90;;;;;;5022783;28;20432;-78
2022/01/11 08:15:20;;;;;;;0.15;0.15;;;4.70;99.90;;;;;;5013765;28;20485;-78
2022/01/11 08:17:46;;;;;;;0.17;0.17;;;4.70;99.90;;;;;;5013011;28;20026;-78
2022/01/11 08:20:12;;;;;;;0.00;0.00;;;4.80;99.90;;;;;;5017426;28;20470;-78
2022/01/11 08:22:38;;;;;;;0.30;0.30;;;4.80;99.90;;;;;;5022969;28;20045;-76
2022/01/11 08:25:05;;;;;;;0.55;0.43;;;4.80;99.90;;;;;;5017008;28;20037;-75
2022/01/11 08:27:31;;;;;;;0.10;0.10;;;4.80;99.90;;;;;;5013722;28;20105;-77
2022/01/11 08:29:57;;;;;;;0.10;0.10;;;4.80;99.90;;;;;;5026074;28;20059;-78
2022/01/11 08:32:22;;;;;;;0.00;0.00;;;4.80;99.90;;;;;;5017175;28;20025;-78
2022/01/11 08:34:48;;;;;;;0.00;0.00;;;4.70;99.90;;;;;;5029962;28;20026;-77
2022/01/11 08:37:14;;;;;;;0.38;0.38;;;4.70;99.90;;;;;;5020137;28;20053;-75
2022/01/11 08:39:40;;;;;;;0.63;0.63;;;4.70;99.90;;;;;;5022227;28;20087;-78
2022/01/11 08:42:08;;;;;;;0.00;0.00;;;4.70;99.90;;;;;;4999027;28;20101;-78
2022/01/11 08:44:34;;;;;;;0.00;0.00;;;4.60;99.90;;;;;;5012301;28;20018;-78
2022/01/11 08:47:00;;;;;;;0.00;0.00;;;4.70;99.90;;;;;;5008147;28;20021;-79
2022/01/11 08:49:25;;;;;;;0.35;0.25;;;4.70;99.90;;;;;;5018325;28;20497;-76
2022/01/11 08:51:51;;;;;;;3.00;0.52;;;4.80;99.90;;;;;;5016635;28;20025;-78
2022/01/11 08:54:18;;;;;;;0.00;0.00;;;4.80;99.90;;;;;;5017554;28;20033;-79
2022/01/11 08:56:44;;;;;;;0.00;0.00;;;5.00;99.90;;;;;;5029390;28;20237;-80
2022/01/11 08:59:10;;;;;;;0.30;0.30;;;5.10;99.90;;;;;;5017582;28;20029;-79
2022/01/11 09:01:36;;;;;;;4.18;1.33;;;5.20;99.90;;;;;;5022664;28;20057;-75
2022/01/11 09:04:02;;;;;;;0.45;0.45;;;5.30;99.90;;;;;;5017044;28;20554;-75
2022/01/11 09:06:28;;;;;;;0.20;0.20;;;5.30;99.90;;;;;;5015947;28;20034;-79
2022/01/11 09:08:54;;;;;;;1.00;0.45;;;5.40;99.90;;;;;;5028791;28;20101;-79
2022/01/11 09:11:19;;;;;;;1.27;0.30;;;5.40;99.90;;;;;;5019096;28;20466;-78
2022/01/11 09:13:46;;;;;;;0.00;0.00;;;5.50;99.90;;;;;;5015466;28;20412;-79
2022/01/11 09:16:13;;;;;;;0.00;0.00;;;5.50;99.90;;;;;;4998636;28;20037;-75
2022/01/11 09:18:39;;;;;;;0.32;0.32;;;5.60;99.90;;;;;;5013995;28;20034;-80
2022/01/11 09:21:05;;;;;;;0.88;0.85;;;5.70;99.90;;;;;;5020377;28;20044;-79
2022/01/11 09:23:32;;;;;;;0.40;0.20;;;5.70;99.90;;;;;;5022706;28;20088;-80
2022/01/11 09:25:58;;;;;;;1.75;0.93;;;5.80;99.90;;;;;;5018788;28;20029;-80
2022/01/11 09:28:23;;;;;;;1.25;1.00;;;5.90;99.90;;;;;;5012925;28;20088;-76
2022/01/11 09:30:50;;;;;;;0.00;0.00;;;5.90;99.90;;;;;;4999355;28;20487;-78
2022/01/11 09:33:16;;;;;;;0.00;0.00;;;6.00;99.90;;;;;;5024682;28;20029;-80
2022/01/11 09:35:42;;;;;;;0.10;0.10;;;6.10;99.90;;;;;;5012090;28;20417;-77
2022/01/11 09:38:08;;;;;;;3.53;0.65;;;6.20;99.90;;;;;;5026378;28;20510;-80
2022/01/11 09:40:34;;;;;;;0.60;0.55;;;6.30;99.90;;;;;;5013068;28;20033;-76
2022/01/11 09:43:00;;;;;;;0.00;0.00;;;6.30;99.90;;;;;;5002692;28;20021;-76
2022/01/11 09:45:26;;;;;;;0.00;0.00;;;6.40;99.90;;;;;;5023320;28;20041;-80
2022/01/11 09:47:51;;;;;;;0.03;0.03;;;6.50;99.90;;;;;;5022902;28;20021;-80
2022/01/11 09:50:18;;;;;;;0.08;0.08;;;6.50;99.90;;;;;;5013431;28;20033;-79
2022/01/11 09:52:45;;;;;;;0.05;0.05;;;6.50;99.90;;;;;;4998289;28;20034;-79
2022/01/11 09:55:13;;;;;;;0.08;0.08;;;6.60;99.90;;;;;;5016784;28;20026;-76
2022/01/11 09:57:40;;;;;;;0.00;0.00;;;6.70;99.90;;;;;;5010517;28;20018;-77
2022/01/11 10:00:09;;;;;;;0.60;0.22;;;6.80;99.90;;;;;;5024891;28;20493;-75
2022/01/11 10:02:35;;;;;;;0.30;0.30;;;6.80;99.90;;;;;;5001753;28;20031;-79
2022/01/11 10:05:08;;;;;;;0.00;0.00;;;6.90;99.90;;;;;;5006226;28;20038;-76
2022/01/11 10:07:40;;;;;;;1.00;1.00;;;7.00;99.90;;;;;;5019565;28;20028;-76
2022/01/11 10:10:14;;;;;;;0.00;0.00;;;7.10;99.90;;;;;;5008911;28;20500;-80
2022/01/11 10:12:52;;;;;;;0.00;0.00;;;7.10;99.90;;;;;;5025365;28;20500;-81
2022/01/11 10:15:33;;;;;;;0.38;0.13;;;7.20;99.90;;;;;;5008784;28;20026;-77
2022/01/11 10:18:00;;;;;;;0.52;0.52;;;7.20;99.90;;;;;;5002187;28;20027;-80
2022/01/11 10:20:27;;;;;;;0.00;0.00;;;7.20;99.90;;;;;;5007540;28;20580;-77
2022/01/11 10:23:00;;;;;;;0.00;0.00;;;7.30;99.90;;;;;;5027394;28;20026;-81
2022/01/11 10:25:27;;;;;;;0.25;0.20;;;7.30;99.90;;;;;;5019710;28;20029;-80
2022/01/11 10:27:54;;;;;;;0.35;0.35;;;7.40;99.90;;;;;;5013866;28;20109;-76
2022/01/11 10:30:23;;;;;;;0.25;0.25;;;7.50;99.90;;;;;;4996947;28;20078;-83
2022/01/11 10:32:50;;;;;;;0.90;0.68;;;7.50;99.90;;;;;;5027062;28;20109;-76
2022/01/11 10:35:26;;;;;;;0.00;0.00;;;7.50;99.90;;;;;;5012369;28;20408;-77
2022/01/11 10:37:54;;;;;;;0.00;0.00;;;7.60;99.90;;;;;;5014313;28;20018;-83
2022/01/11 10:40:34;;;;;;;0.40;0.40;;;7.70;99.90;;;;;;5028506;28;20072;-83
2022/01/11 10:43:05;;;;;;;0.03;0.03;;;7.70;99.90;;;;;;5020422;28;20017;-82
2022/01/11 10:45:33;;;;;;;0.00;0.00;;;7.80;99.90;;;;;;5023654;28;20084;-82
2022/01/11 10:48:03;;;;;;;0.00;0.00;;;7.80;99.90;;;;;;5020794;28;20117;-76
2022/01/11 10:50:34;;;;;;;2.78;0.60;;;7.80;99.90;;;;;;5027785;28;20017;-75
2022/01/11 10:53:12;;;;;;;0.00;0.00;;;7.90;99.90;;;;;;5005556;28;20022;-76
2022/01/11 10:55:39;;;;;;;0.00;0.00;;;8.00;99.90;;;;;;5025228;28;20013;-81
2022/01/11 10:58:07;;;;;;;3.97;1.88;;;8.10;99.90;;;;;;5018721;28;20045;-75
2022/01/11 11:00:43;;;;;;;1.65;0.75;;;8.20;99.90;;;;;;5013487;28;20049;-74
2022/01/11 11:03:30;;;;;;;0.03;0.03;;;8.30;99.90;;;;;;5025454;28;20054;-81
2022/01/11 11:06:05;;;;;;;0.13;0.13;;;8.30;99.90;;;;;;5003341;28;20038;-82
2022/01/11 11:08:35;;;;;;;0.00;0.00;;;8.50;99.90;;;;;;5012096;28;20026;-82
2022/01/11 11:11:10;;;;;;;5.68;0.70;;;8.60;99.90;;;;;;5025506;28;20025;-75
2022/01/11 11:13:38;;;;;;;0.05;0.05;;;8.60;99.90;;;;;;5019210;28;20388;-82
2022/01/11 11:16:28;;;;;;;1.67;0.43;;;8.70;99.90;;;;;;5022470;28;20033;-82
2022/01/11 11:18:58;;;;;;;0.20;0.20;;;8.80;99.90;;;;;;5012548;28;20034;-83
2022/01/11 11:21:28;;;;;;;0.00;0.00;;;8.80;99.90;;;;;;5021656;28;20430;-76
2022/01/11 11:23:56;;;;;;;0.00;0.00;;;8.90;99.90;;;;;;5022310;28;20029;-76
2022/01/11 11:26:28;;;;;;;5.05;0.25;;;9.00;99.90;;;;;;5024680;28;20057;-75
2022/01/11 11:28:54;;;;;;;0.35;0.35;;;9.10;99.90;;;;;;5018172;28;20104;-81
2022/01/11 11:31:21;;;;;;;0.00;0.00;;;9.10;99.90;;;;;;5026864;28;20054;-80
2022/01/11 11:33:47;;;;;;;0.00;0.00;;;9.30;99.90;;;;;;5025634;28;20068;-80
2022/01/11 11:36:15;;;;;;;0.00;0.00;;;9.40;99.90;;;;;;5010554;28;20044;-80
2022/01/11 11:38:55;;;;;;;0.10;0.00;;;9.50;99.90;;;;;;5029794;28;20076;-76
2022/01/11 11:41:23;;;;;;;0.00;0.00;;;9.50;99.90;;;;;;5022108;28;20025;-80
2022/01/11 11:44:12;;;;;;;0.00;0.00;;;9.60;99.90;;;;;;5027197;28;20404;-80
2022/01/11 11:46:45;;;;;;;0.00;0.00;;;9.60;99.90;;;;;;5017498;28;20104;-76
2022/01/11 11:49:12;;;;;;;;;;;9.70;99.90;;;;;;5019985;28;20026;-80
2022/01/11 11:51:42;;;;;;;0.10;0.10;;;9.80;99.90;;;;;;5023809;28;19912;-75
2022/01/11 11:54:20;;;;;;;0.00;0.00;;;9.70;99.90;;;;;;5018817;28;20105;-80
2022/01/11 11:56:59;;;;;;;0.00;0.00;;;9.70;99.90;;;;;;5030606;28;20021;-76
2022/01/11 11:59:25;;;;;;;0.82;0.55;;;9.70;99.90;;;;;;5021963;28;20040;-78
2022/01/11 12:01:51;;;;;;;0.00;0.00;;;10.00;99.90;;;;;;5021664;28;20096;-80
2022/01/11 12:04:32;;;;;;;0.00;0.00;;;10.20;99.90;;;;;;5018161;28;20026;-75
2022/01/11 12:07:18;;;;;;;0.00;0.00;;;10.30;99.90;;;;;;5012320;28;20017;-80
2022/01/11 12:09:45;;;;;;;0.47;0.25;;;10.30;99.90;;;;;;5015215;28;20121;-75
2022/01/11 12:12:16;;;;;;;0.00;0.00;;;10.40;99.90;;;;;;5013456;28;20026;-79
2022/01/11 12:14:42;;;;;;;0.00;0.00;;;10.40;99.90;;;;;;5015303;28;20018;-80
2022/01/11 12:17:18;;;;;;;0.00;0.00;;;10.40;99.90;;;;;;5010954;28;20022;-75
2022/01/11 12:19:46;;;;;;;0.52;0.10;;;10.40;99.90;;;;;;5013809;28;20096;-75
2022/01/11 12:22:12;;;;;;;0.00;0.00;;;10.40;99.90;;;;;;5016316;28;20450;-80
2022/01/11 12:24:41;;;;;;;0.10;0.10;;;10.40;99.90;;;;;;5012692;28;20101;-79
2022/01/11 12:27:10;;;;;;;0.00;0.00;;;10.60;99.90;;;;;;5011200;28;20030;-80
2022/01/11 12:29:55;;;;;;;0.00;0.00;;;10.70;99.90;;;;;;5021823;28;20038;-76
2022/01/11 12:32:23;;;;;;;0.00;0.00;;;10.80;99.90;;;;;;5013497;28;20022;-75
2022/01/11 12:35:05;;;;;;;0.00;0.00;;;10.80;99.90;;;;;;5000533;28;20037;-79
2022/01/11 12:37:38;;;;;;;0.20;0.17;;;10.90;99.90;;;;;;5013400;28;20107;-79
2022/01/11 12:40:24;;;;;;;0.77;0.15;;;11.00;99.90;;;;;;5025670;28;20029;-74
2022/01/11 12:43:03;;;;;;;0.00;0.00;;;11.10;99.90;;;;;;5011645;28;20030;-80
2022/01/11 12:46:08;;;;;;;0.38;0.38;;;11.10;99.90;;;;;;5006060;28;20137;-75
2022/01/11 12:48:47;;;;;;;0.15;0.15;;;11.10;99.90;;;;;;5028013;28;20583;-80
2022/01/11 12:51:23;;;;;;;0.10;0.10;;;11.00;99.90;;;;;;5035891;28;20025;-79
2022/01/11 12:53:51;;;;;;;0.08;0.08;;;11.10;99.90;;;;;;5038563;28;20041;-78
2022/01/11 12:56:18;;;;;;;0.00;0.00;;;11.20;99.90;;;;;;5042886;28;20508;-75
2022/01/11 12:58:46;;;;;;;3.20;0.25;;;11.20;99.90;;;;;;5046910;28;20033;-75
2022/01/11 13:01:19;;;;;;;1.42;0.30;;;11.30;99.90;;;;;;5037674;28;20025;-80
2022/01/11 13:03:52;;;;;;;;;;;11.30;99.90;;;;;;5040028;28;20072;-80